Details From UNNT - Novosibirsk Tolmachevo
To UNEE - Kemerovo
Flight Number -
Tags Generated
Created
Modified
Stats Distance 120 nm / 222 km
Max Altitude 0 ft / 0 m
Waypoints 2
Social Downloads 5
Likes 0
Share VATSIM

Download

Looking for another format? Having issues loading an existing format? Contact us
Advertisement - Login to hide

Notes

Generated

Route

UNNT UNEE

ID Type Via Altitude Latitude Longitude Leg Dist Tot Dist Heading (true) Name
O UNNT APT - 0 ft / 0 m 55.01130˚ 82.62816˚ - 0 nm - -
O UNEE APT - 0 ft / 0 m 55.26569˚ 86.09149˚ 119 nm 119 nm 81° / 84° -

Altitude Profile

Advertisement - Login to hide

UNNT

Details ICAO UNNT (OVB)
Name Novosibirsk Tolmachevo
Region Russia
Timezone Asia/Novosibirsk (UTC+7.0)
Stats Elevation 365 ft / 111 m (AMSL)
Location 55.013017° 82.651065°
Runways 2
Magnetic Variation 8.864° E

METAR

UNNT 181700Z 19002MPS 6000 -SN OVC003 M21/M24 Q1045 R25/810160 R34/810160 NOSIG RMK QBB110 QFE774/1032

Decode

TAF

TAF AMD UNNT 181410Z 1814/1915 18003G08MPS 3000 BR FU BKN004 TEMPO 1814/1905 0800 FZFG BKN002 FM190500 VRB01MPS CAVOK

Decode

Departure Runways

ID Width Length Bearing (true) Bearing (mag) Surface Threshold Offset Overrun Length
07 190 ft / 58 m 11,817 ft / 3,602 m 81.00° 72.14° Asphalt 0 ft / 0 m 250 ft / 76 m
07L 304 ft / 93 m 9,877 ft / 3,011 m 81.01° 72.15° Grass 0 ft / 0 m 0 ft / 0 m
25 190 ft / 58 m 11,817 ft / 3,602 m 261.04° 252.18° Asphalt 0 ft / 0 m 225 ft / 69 m
25R 304 ft / 93 m 9,877 ft / 3,011 m 261.05° 252.19° Grass 0 ft / 0 m 0 ft / 0 m

UNEE

Details ICAO UNEE (KEJ)
Name KEMEROVO
Region Russia
Timezone Asia/Novokuznetsk (UTC+7.0)
Stats Elevation 863 ft / 263 m (AMSL)
Location 55.271271° 86.107893°
Runways 2
Magnetic Variation 7.384° E

METAR

UNEE 181700Z 18003MPS 8000 NSC M16/M19 Q1042 R23/821050 NOSIG RMK QFE758

Decode

TAF

TAF UNEE 181400Z 1815/1915 18003MPS CAVOK TEMPO 1820/1903 3100 BR

Decode

Destination Runways

ID Width Length Bearing (true) Bearing (mag) Surface Threshold Offset Overrun Length
05 197 ft / 60 m 10,486 ft / 3,196 m 53.55° 46.17° Concrete 0 ft / 0 m 235 ft / 72 m
05L 155 ft / 47 m 8,637 ft / 2,633 m 55.18° 47.80° Asphalt 0 ft / 0 m 160 ft / 49 m
23 197 ft / 60 m 10,486 ft / 3,196 m 233.58° 226.20° Concrete 0 ft / 0 m 235 ft / 72 m
23R 155 ft / 47 m 8,637 ft / 2,633 m 235.20° 227.82° Asphalt 0 ft / 0 m 0 ft / 0 m

Popular Alternatives